• Join FlightAware (Why Join?)
  • Login
  • US Flag 
08:22AM EDT


 

Airport Tracker/Info


-or-


 

Live Flight TrackerFlight Track Log ✈ KAP46 ✈ 11-Aug-2013 ✈ KMSS - KALB

Flight Track Log - Related Links

Times and Time Zones

All times are in EDT time to prevent confusion due to time zone crossing. See the KAP46 flight status page for this flight to view local times or setup timezone preferences in your user account.

Time Position Orientation Groundspeed Altitude Reporting Facility
EDT Latitude Longitude Course Direction KTS MPH feet Rate Location/Type
07:25AM 44.6142 -74.7061 160° South 154 177 5,500  Level Boston Center
07:26AM 44.5686 -74.6839 161° South 164 189 5,500  Level Boston Center
07:27AM 44.5233 -74.6617 161° South 164 189 5,500  Level Boston Center
07:28AM 44.4800 -74.6428 163° South 164 189 5,500  Level Boston Center
07:29AM 44.4386 -74.6236 162° South 164 189 5,500  Level Boston Center
07:30AM 44.6982 -74.7241 160° South  Level FlightAware Approximate
07:30AM 44.3953 -74.5989 158° South 164 189 5,500  Level Boston Center
07:31AM 44.3519 -74.5769 160° South 164 189 5,500  Level Boston Center
07:32AM 44.3064 -74.5550 161° South 164 189 5,500  Level Boston Center
07:33AM 44.2631 -74.5361 163° South 164 189 5,500  Level Boston Center
07:34AM 44.2217 -74.5144 159° South 164 189 5,500  Level Boston Center
07:35AM 44.1764 -74.4953 163° South 164 189 5,500 -60 Level Boston Center
07:36AM 44.1308 -74.4678 157° South 164 189 5,400 -60 Descending Boston Center
07:37AM 44.0856 -74.4489 163° South 164 189 5,400  Level Boston Center
07:38AM 44.0442 -74.4300 162° South 164 189 5,400  Level Boston Center
07:39AM 43.9986 -74.4056 159° South 164 189 5,400  Level Boston Center
07:40AM 43.9553 -74.3839 160° South 164 189 5,400  Level Boston Center
07:41AM 43.9119 -74.3622 160° South 164 189 5,500  Climbing Boston Center
07:42AM 43.8664 -74.3378 159° South 164 189 5,500  Level Boston Center
07:43AM 43.8208 -74.3161 161° South 164 189 5,500  Level Boston Center
07:44AM 43.7753 -74.2975 164° South 164 189 5,500  Level Boston Center
07:45AM 43.7319 -74.2761 160° South 164 189 5,500  Level Boston Center
07:46AM 43.6864 -74.2547 161° South 164 189 5,500  Level Boston Center
07:47AM 43.6431 -74.2303 158° South 164 189 5,500  Level Boston Center
07:48AM 43.5975 -74.2089 161° South 164 189 5,500  Level Boston Center
07:49AM 43.5519 -74.1875 161° South 164 189 5,500  Level Boston Center
07:50AM 43.5086 -74.1664 161° South 164 189 5,500  Level Boston Center
07:51AM 43.4631 -74.1450 161° South 164 189 5,500  Level Boston Center
07:51AM 43.4236 -74.1267 161° South 170 196 5,500  Level Boston Center
07:52AM 43.3844 -74.1056 159° South 170 196 5,500  Level Boston Center
07:53AM 43.3408 -74.0872 163° South 169 194 5,500  Level Boston Center
07:54AM 43.2997 -74.0578 152° Southeast 169 194 5,500  Level Boston Center
07:55AM 43.2564 -74.0253 151° Southeast 169 194 5,500  Level Boston Center
07:56AM 43.2150 -74.0014 157° South 169 194 5,500 -180 Level Boston Center
07:57AM 43.1694 -73.9717 155° Southeast 175 201 5,200 -360 Descending Boston Center
07:58AM 43.1219 -73.9506 162° South 183 211 4,800 -480 Descending Boston Center
07:59AM 43.0703 -73.9236 159° South 185 213 4,300 -600 Descending Boston Center
08:00AM 43.0206 -73.8942 157° South 190 219 3,700 -540 Descending Boston Center
08:01AM 42.9708 -73.8758 165° South 186 214 3,300 -420 Descending Boston Center
08:02AM 42.9294 -73.8522 157° South 182 209 2,900 -540 Descending Boston Center
08:03AM 42.8817 -73.8314 162° South 182 209 2,300 -540 Descending Boston Center
08:04AM 42.8256 -73.8131 167° South 184 212 1,800 -660 Descending Boston Center
08:05AM 42.7861 -73.8094 176° South 123 142 1,000 -840 Descending Boston Center
08:08AM 42.7491 -73.8020 170° South  Level Estimated
08:15AM 42.7491 -73.8020 170° South  Level Estimated
08:16AM 42.7491 -73.8020 170° South  Level Estimated
08:17AM 42.7491 -73.8020 170° South  Level Estimated
08:18AM 42.7491 -73.8020 170° South  Level Estimated